createdAt,value
2023-01-09T00:00:34.823Z,99.90
2023-01-09T00:03:01.614Z,99.90
2023-01-09T00:05:28.354Z,99.90
2023-01-09T00:07:55.091Z,99.90
2023-01-09T00:10:21.747Z,99.90
2023-01-09T00:12:51.894Z,99.90
2023-01-09T00:15:23.736Z,99.90
2023-01-09T00:17:50.357Z,99.90
2023-01-09T00:20:17.444Z,99.90
2023-01-09T00:22:44.071Z,99.90
2023-01-09T00:25:13.835Z,99.90
2023-01-09T00:27:42.269Z,99.90
2023-01-09T00:30:09.834Z,99.90
2023-01-09T00:32:36.437Z,99.90
2023-01-09T00:35:03.336Z,99.90
2023-01-09T00:37:30.027Z,99.90
2023-01-09T00:39:56.708Z,99.90
2023-01-09T00:42:25.806Z,99.90
2023-01-09T00:45:00.389Z,99.90
2023-01-09T00:47:29.273Z,99.90
2023-01-09T00:49:58.619Z,99.90
2023-01-09T00:52:25.701Z,99.90
2023-01-09T00:54:52.457Z,99.90
2023-01-09T00:57:19.154Z,99.90
2023-01-09T00:59:45.875Z,99.90
2023-01-09T01:02:12.868Z,99.90
2023-01-09T01:04:58.156Z,99.90
2023-01-09T01:07:42.221Z,99.90
2023-01-09T01:10:11.415Z,99.90
2023-01-09T01:12:38.715Z,99.90
2023-01-09T01:15:06.353Z,99.90
2023-01-09T01:17:37.037Z,99.90
2023-01-09T01:20:07.881Z,99.90
2023-01-09T01:22:34.551Z,99.90
2023-01-09T01:25:01.297Z,99.90
2023-01-09T01:27:46.385Z,99.90
2023-01-09T01:30:14.518Z,99.90
2023-01-09T01:32:41.717Z,99.90
2023-01-09T01:35:09.006Z,99.90
2023-01-09T01:37:36.763Z,99.90
2023-01-09T01:40:03.744Z,99.90
2023-01-09T01:42:30.973Z,99.90
2023-01-09T01:44:59.968Z,99.90
2023-01-09T01:47:32.659Z,99.90
2023-01-09T01:50:00.552Z,99.90
2023-01-09T01:52:27.643Z,99.90
2023-01-09T01:54:57.701Z,99.90
2023-01-09T01:57:24.551Z,99.90
2023-01-09T01:59:53.871Z,99.90
2023-01-09T02:02:22.410Z,99.90
2023-01-09T02:04:51.259Z,99.90
2023-01-09T02:07:20.884Z,99.90
2023-01-09T02:09:47.599Z,99.90
2023-01-09T02:12:18.757Z,99.90
2023-01-09T02:14:47.774Z,99.90
2023-01-09T02:17:37.041Z,99.90
2023-01-09T02:20:15.835Z,99.90
2023-01-09T02:23:01.084Z,99.90
2023-01-09T02:25:46.349Z,99.90
2023-01-09T02:28:12.935Z,99.90
2023-01-09T02:30:48.976Z,99.90
2023-01-09T02:33:15.541Z,99.90
2023-01-09T02:35:44.963Z,99.90
2023-01-09T02:38:17.562Z,99.90
2023-01-09T02:40:47.006Z,99.90
2023-01-09T02:43:14.082Z,99.90
2023-01-09T02:45:43.841Z,99.90
2023-01-09T02:48:11.429Z,99.90
2023-01-09T02:50:56.802Z,99.90
2023-01-09T02:53:29.304Z,99.90
2023-01-09T02:56:04.900Z,99.90
2023-01-09T02:58:52.169Z,99.90
2023-01-09T03:01:25.051Z,99.90
2023-01-09T03:04:07.122Z,99.90
2023-01-09T03:06:41.424Z,99.90
2023-01-09T03:09:11.842Z,99.90
2023-01-09T03:11:43.969Z,99.90
2023-01-09T03:14:16.239Z,99.90
2023-01-09T03:16:45.511Z,99.90
2023-01-09T03:19:14.425Z,99.90
2023-01-09T03:21:42.355Z,99.90
2023-01-09T03:24:09.114Z,99.90
2023-01-09T03:26:36.152Z,99.90
2023-01-09T03:29:02.873Z,99.90
2023-01-09T03:31:29.726Z,99.90
2023-01-09T03:33:56.462Z,99.90
2023-01-09T03:36:23.980Z,99.90
2023-01-09T03:38:53.587Z,99.90
2023-01-09T03:41:20.344Z,99.90
2023-01-09T03:43:48.486Z,99.90
2023-01-09T03:46:15.671Z,99.90
2023-01-09T03:48:42.427Z,99.90
2023-01-09T03:51:09.085Z,99.90
2023-01-09T03:53:35.783Z,99.90
2023-01-09T03:56:02.447Z,99.90
2023-01-09T03:58:29.356Z,99.90
2023-01-09T04:01:00.276Z,99.90
2023-01-09T04:03:27.248Z,99.90
2023-01-09T04:05:56.989Z,99.90
2023-01-09T04:08:23.723Z,99.90
2023-01-09T04:10:50.828Z,99.90
2023-01-09T04:13:17.927Z,99.90
2023-01-09T04:15:47.687Z,99.90
2023-01-09T04:18:14.914Z,99.90
2023-01-09T04:20:42.134Z,99.90
2023-01-09T04:23:08.809Z,99.90
2023-01-09T04:25:35.554Z,99.90
2023-01-09T04:28:02.191Z,99.90
2023-01-09T04:30:28.912Z,99.90
2023-01-09T04:32:55.619Z,99.90
2023-01-09T04:35:22.321Z,99.90
2023-01-09T04:37:49.103Z,99.90
2023-01-09T04:40:15.801Z,99.90
2023-01-09T04:42:42.865Z,99.90
2023-01-09T04:45:10.652Z,99.90
2023-01-09T04:47:37.780Z,99.90
2023-01-09T04:50:04.727Z,99.90
2023-01-09T04:52:31.567Z,99.90
2023-01-09T04:54:58.254Z,99.90
2023-01-09T04:57:25.013Z,99.90
2023-01-09T04:59:52.323Z,99.90
2023-01-09T05:02:20.045Z,99.90
2023-01-09T05:04:46.754Z,99.90
2023-01-09T05:07:13.576Z,99.90
2023-01-09T05:09:43.553Z,99.90
2023-01-09T05:12:10.373Z,99.90
2023-01-09T05:14:37.268Z,99.90
2023-01-09T05:17:06.851Z,99.90
2023-01-09T05:19:34.590Z,99.90
2023-01-09T05:22:03.508Z,99.90
2023-01-09T05:24:30.139Z,99.90
2023-01-09T05:26:56.856Z,99.90
2023-01-09T05:29:27.206Z,99.90
2023-01-09T05:31:53.896Z,99.90
2023-01-09T05:34:20.886Z,99.90
2023-01-09T05:36:47.584Z,99.90
2023-01-09T05:39:14.354Z,99.90
2023-01-09T05:41:41.044Z,99.90
2023-01-09T05:44:07.655Z,99.90
2023-01-09T05:46:34.382Z,99.90
2023-01-09T05:49:03.747Z,99.90
2023-01-09T05:51:31.936Z,99.90
2023-01-09T05:53:59.251Z,99.90
2023-01-09T05:56:25.997Z,99.90
2023-01-09T05:58:52.689Z,99.90
2023-01-09T06:01:19.496Z,99.90
2023-01-09T06:03:46.239Z,99.90
2023-01-09T06:06:12.833Z,99.90
2023-01-09T06:08:39.433Z,99.90
2023-01-09T06:11:06.209Z,99.90
2023-01-09T06:13:32.836Z,99.90
2023-01-09T06:15:59.482Z,99.90
2023-01-09T06:18:26.178Z,99.90
2023-01-09T06:20:52.870Z,99.90
2023-01-09T06:23:20.632Z,99.90
2023-01-09T06:25:47.366Z,99.90
2023-01-09T06:28:14.067Z,99.90
2023-01-09T06:30:40.741Z,99.90
2023-01-09T06:33:07.995Z,99.90
2023-01-09T06:39:26.196Z,99.90
2023-01-09T06:42:02.941Z,99.90
2023-01-09T06:44:31.102Z,99.90
2023-01-09T06:46:57.818Z,99.90
2023-01-09T06:49:24.938Z,99.90
2023-01-09T06:51:51.783Z,99.90
2023-01-09T06:54:19.142Z,99.90
2023-01-09T06:56:45.968Z,99.90
2023-01-09T06:59:12.808Z,99.90
2023-01-09T07:01:42.503Z,99.90
2023-01-09T07:04:12.147Z,99.90
2023-01-09T07:06:39.003Z,99.90
2023-01-09T07:09:08.375Z,99.90
2023-01-09T07:11:35.059Z,99.90
2023-01-09T07:14:01.690Z,99.90
2023-01-09T07:16:28.359Z,99.90
2023-01-09T07:18:56.969Z,99.90
2023-01-09T07:21:23.695Z,99.90
2023-01-09T07:23:50.318Z,99.90
2023-01-09T07:26:17.167Z,99.90
2023-01-09T07:28:43.863Z,99.90
2023-01-09T07:31:10.510Z,99.90
2023-01-09T07:33:37.224Z,99.90
2023-01-09T07:36:03.994Z,99.90
2023-01-09T07:38:32.161Z,99.90
2023-01-09T07:40:58.837Z,99.90
2023-01-09T07:43:25.482Z,99.90
2023-01-09T07:45:52.168Z,99.90
2023-01-09T07:48:18.886Z,99.90
2023-01-09T07:50:45.488Z,99.90
2023-01-09T07:53:15.125Z,99.90
2023-01-09T07:55:47.872Z,99.90
2023-01-09T07:58:14.588Z,99.90
2023-01-09T08:00:41.452Z,99.90
2023-01-09T08:03:08.236Z,99.90
2023-01-09T08:05:35.057Z,99.90
2023-01-09T08:08:02.103Z,99.90
2023-01-09T08:10:28.827Z,99.90
2023-01-09T08:12:55.581Z,99.90
2023-01-09T08:15:22.235Z,99.90
2023-01-09T08:17:49.001Z,99.90
2023-01-09T08:20:16.600Z,99.90
2023-01-09T08:22:44.432Z,99.90
2023-01-09T08:25:12.367Z,99.90
2023-01-09T08:27:39.660Z,99.90
2023-01-09T08:30:06.739Z,99.90
2023-01-09T08:32:33.423Z,99.90
2023-01-09T08:35:00.239Z,99.90
2023-01-09T08:37:26.973Z,99.90
2023-01-09T08:39:53.677Z,99.90
2023-01-09T08:42:39.524Z,99.90
2023-01-09T08:45:25.485Z,99.90
2023-01-09T08:47:52.216Z,99.90
2023-01-09T08:50:19.026Z,99.90
2023-01-09T08:52:45.797Z,99.90
2023-01-09T08:55:12.389Z,99.90
2023-01-09T08:57:47.157Z,99.90
2023-01-09T09:00:14.176Z,99.90
2023-01-09T09:02:40.902Z,99.90
2023-01-09T09:05:07.849Z,99.90
2023-01-09T09:07:34.674Z,99.90
2023-01-09T09:10:01.269Z,99.90
2023-01-09T09:12:28.319Z,99.90
2023-01-09T09:15:13.339Z,99.90
2023-01-09T09:17:40.376Z,99.90
2023-01-09T09:20:08.396Z,99.90
2023-01-09T09:22:35.320Z,98.70
2023-01-09T09:25:03.662Z,96.30
2023-01-09T09:27:31.160Z,94.20
2023-01-09T09:29:58.097Z,92.70
2023-01-09T09:32:24.783Z,91.20
2023-01-09T09:34:51.467Z,91.60
2023-01-09T09:37:18.205Z,90.90
2023-01-09T09:39:44.949Z,90.10
2023-01-09T09:42:30.431Z,86.90
2023-01-09T09:45:06.235Z,87.80
2023-01-09T09:47:41.566Z,90.50
2023-01-09T09:50:18.735Z,89.70
2023-01-09T09:52:54.697Z,90.60
2023-01-09T09:55:25.304Z,90.60
2023-01-09T09:57:52.243Z,90.00
2023-01-09T10:00:20.544Z,87.00
2023-01-09T10:02:47.687Z,85.20
2023-01-09T10:05:23.432Z,86.90
2023-01-09T10:07:51.087Z,88.30
2023-01-09T10:10:33.742Z,86.30
2023-01-09T10:13:20.656Z,88.20
2023-01-09T10:15:55.888Z,86.10
2023-01-09T10:19:01.359Z,83.80
2023-01-09T10:21:44.813Z,87.80
2023-01-09T10:24:14.142Z,90.50
2023-01-09T10:26:45.947Z,91.60
2023-01-09T10:29:12.638Z,93.10
2023-01-09T10:31:45.811Z,92.60
2023-01-09T10:34:18.551Z,93.10
2023-01-09T10:36:47.955Z,92.40
2023-01-09T10:39:20.560Z,91.30
2023-01-09T10:41:50.058Z,86.90
2023-01-09T10:44:21.022Z,88.60
2023-01-09T10:46:52.026Z,90.30
2023-01-09T10:49:19.207Z,90.90
2023-01-09T10:51:50.298Z,91.60
2023-01-09T10:54:19.080Z,92.10
2023-01-09T10:56:56.547Z,92.30
2023-01-09T10:59:24.367Z,93.90
2023-01-09T11:01:51.380Z,94.60
2023-01-09T11:04:24.803Z,95.00
2023-01-09T11:07:04.441Z,95.40
2023-01-09T11:09:51.029Z,96.30
2023-01-09T11:12:28.384Z,97.00
2023-01-09T11:14:55.083Z,97.10
2023-01-09T11:17:25.390Z,97.90
2023-01-09T11:20:06.479Z,97.60
2023-01-09T11:22:49.550Z,97.70
2023-01-09T11:25:17.582Z,97.80
2023-01-09T11:27:44.765Z,97.90
2023-01-09T11:30:16.288Z,97.90
2023-01-09T11:32:44.724Z,98.70
2023-01-09T11:35:17.014Z,98.30
2023-01-09T11:37:44.834Z,98.70
2023-01-09T11:40:21.715Z,98.30
2023-01-09T11:43:08.696Z,98.60
2023-01-09T11:45:38.609Z,98.70
2023-01-09T11:48:16.706Z,99.10
2023-01-09T11:50:52.803Z,99.00
2023-01-09T11:53:20.602Z,99.20
2023-01-09T11:55:51.401Z,99.70
2023-01-09T11:58:19.412Z,99.90
2023-01-09T12:00:53.819Z,99.90
2023-01-09T12:03:29.742Z,99.90
2023-01-09T12:06:19.919Z,99.40
2023-01-09T12:08:46.692Z,99.30
2023-01-09T12:11:13.414Z,98.70
2023-01-09T12:13:58.981Z,99.30
2023-01-09T12:16:35.848Z,99.00
2023-01-09T12:19:10.974Z,99.70
2023-01-09T12:22:00.744Z,98.40
2023-01-09T12:24:47.751Z,99.00
2023-01-09T12:27:17.480Z,98.70
2023-01-09T12:29:58.448Z,98.50
2023-01-09T12:32:28.095Z,98.70
2023-01-09T12:35:12.701Z,99.10
2023-01-09T12:37:39.352Z,98.90
2023-01-09T12:40:15.031Z,99.10
2023-01-09T12:42:53.896Z,99.20
2023-01-09T12:45:23.792Z,99.00
2023-01-09T12:47:51.167Z,99.90
2023-01-09T12:50:27.154Z,99.90
2023-01-09T12:53:16.967Z,99.90
2023-01-09T12:55:46.718Z,99.90
2023-01-09T12:58:30.241Z,99.90
2023-01-09T13:00:58.043Z,99.90
2023-01-09T13:03:32.537Z,99.90
2023-01-09T13:06:00.816Z,99.90
2023-01-09T13:08:27.500Z,99.90
2023-01-09T13:10:57.585Z,99.90
2023-01-09T13:13:30.650Z,99.90
2023-01-09T13:15:59.011Z,99.90
2023-01-09T13:18:25.829Z,99.90
2023-01-09T13:20:53.823Z,99.90
2023-01-09T13:23:26.566Z,99.90
2023-01-09T13:25:57.649Z,99.90
2023-01-09T13:28:27.583Z,99.90
2023-01-09T13:31:03.299Z,99.90
2023-01-09T13:33:32.299Z,99.90
2023-01-09T13:35:59.452Z,99.90
2023-01-09T13:38:27.798Z,99.90
2023-01-09T13:41:32.536Z,99.90
2023-01-09T13:44:04.177Z,99.90
2023-01-09T13:46:37.122Z,99.90
2023-01-09T13:49:04.472Z,99.90
2023-01-09T13:51:55.408Z,99.90
2023-01-09T13:54:40.653Z,99.90
2023-01-09T13:57:25.059Z,99.90
2023-01-09T13:59:52.061Z,99.90
2023-01-09T14:02:34.278Z,99.90
2023-01-09T14:05:04.145Z,99.90
2023-01-09T14:07:35.104Z,99.90
2023-01-09T14:10:07.274Z,99.90
2023-01-09T14:12:40.538Z,99.90
2023-01-09T14:15:07.775Z,99.90
2023-01-09T14:17:36.704Z,99.90
2023-01-09T14:20:05.734Z,99.90
2023-01-09T14:22:45.424Z,99.90
2023-01-09T14:25:24.287Z,99.90
2023-01-09T14:27:54.137Z,99.90
2023-01-09T14:30:26.707Z,99.90
2023-01-09T14:32:56.865Z,99.90
2023-01-09T14:35:41.848Z,99.90
2023-01-09T14:38:14.314Z,99.90
2023-01-09T14:40:45.981Z,99.90
2023-01-09T14:43:17.027Z,99.90
2023-01-09T14:45:45.617Z,99.90
2023-01-09T14:48:12.722Z,99.90
2023-01-09T14:50:47.858Z,99.90
2023-01-09T14:53:21.343Z,99.90
2023-01-09T14:55:57.776Z,99.90
2023-01-09T14:58:26.077Z,99.90
2023-01-09T15:00:55.554Z,99.90
2023-01-09T15:03:22.680Z,99.90
2023-01-09T15:05:49.743Z,99.90
2023-01-09T15:08:18.460Z,99.90
2023-01-09T15:10:46.297Z,99.90
2023-01-09T15:13:15.623Z,99.90
2023-01-09T15:15:46.826Z,99.90
2023-01-09T15:18:18.927Z,99.90
2023-01-09T15:20:52.314Z,99.90
2023-01-09T15:23:23.944Z,99.90
2023-01-09T15:25:51.206Z,99.90
2023-01-09T15:28:25.310Z,99.90
2023-01-09T15:31:01.202Z,99.90
2023-01-09T15:33:28.059Z,99.90
2023-01-09T15:36:00.166Z,99.90
2023-01-09T15:38:28.130Z,99.90
2023-01-09T15:40:59.037Z,99.90
2023-01-09T15:43:27.660Z,99.90
2023-01-09T15:45:55.085Z,99.90
2023-01-09T15:48:21.806Z,99.90
2023-01-09T15:50:49.578Z,99.90
2023-01-09T15:53:18.101Z,99.90
2023-01-09T15:55:46.510Z,99.90
2023-01-09T15:58:29.125Z,99.90
2023-01-09T16:00:58.367Z,99.90
2023-01-09T16:03:25.808Z,99.90
2023-01-09T16:05:55.266Z,99.90
2023-01-09T16:08:24.109Z,99.90
2023-01-09T16:10:52.552Z,99.90
2023-01-09T16:13:21.107Z,99.90
2023-01-09T16:15:48.175Z,99.90
2023-01-09T16:18:17.846Z,99.90
2023-01-09T16:20:45.601Z,99.90
2023-01-09T16:23:23.139Z,99.90
2023-01-09T16:25:49.967Z,99.90
2023-01-09T16:28:21.920Z,99.90
2023-01-09T16:31:08.313Z,99.90
2023-01-09T16:33:35.179Z,99.90
2023-01-09T16:36:04.680Z,99.90
2023-01-09T16:38:31.402Z,99.90
2023-01-09T16:41:23.897Z,99.90
2023-01-09T16:43:51.611Z,99.90
2023-01-09T16:46:21.163Z,99.90
2023-01-09T16:48:48.251Z,99.90
2023-01-09T16:51:16.804Z,99.90
2023-01-09T16:53:43.960Z,99.90
2023-01-09T16:56:15.074Z,99.90
2023-01-09T16:58:42.031Z,99.90
2023-01-09T17:01:10.459Z,99.90
2023-01-09T17:03:37.353Z,99.90
2023-01-09T17:06:04.420Z,99.90
2023-01-09T17:08:33.547Z,99.90
2023-01-09T17:11:00.395Z,99.90
2023-01-09T17:13:27.273Z,99.90
2023-01-09T17:15:54.998Z,99.90
2023-01-09T17:18:23.060Z,99.90
2023-01-09T17:20:51.224Z,99.90
2023-01-09T17:23:18.021Z,99.90
2023-01-09T17:26:03.620Z,99.90
2023-01-09T17:28:33.636Z,99.90
2023-01-09T17:31:01.386Z,99.90
2023-01-09T17:33:28.330Z,99.90
2023-01-09T17:35:55.591Z,99.90
2023-01-09T17:38:22.591Z,99.90
2023-01-09T17:40:50.003Z,99.90
2023-01-09T17:43:18.957Z,99.90
2023-01-09T17:45:45.845Z,99.90
2023-01-09T17:48:16.666Z,99.90
2023-01-09T17:50:43.923Z,99.90
2023-01-09T17:53:10.778Z,99.90
2023-01-09T17:55:37.659Z,99.90
2023-01-09T17:58:04.637Z,99.90
2023-01-09T18:00:36.771Z,99.90
2023-01-09T18:03:04.695Z,99.90
2023-01-09T18:05:31.638Z,99.90
2023-01-09T18:07:58.390Z,99.90
2023-01-09T18:10:27.277Z,99.90
2023-01-09T18:12:55.294Z,99.90
2023-01-09T18:15:24.569Z,99.90
2023-01-09T18:17:52.053Z,99.90
2023-01-09T18:20:19.139Z,99.90
2023-01-09T18:22:46.091Z,99.90
2023-01-09T18:25:12.999Z,99.90
2023-01-09T18:27:39.889Z,99.90
2023-01-09T18:30:07.061Z,99.90
2023-01-09T18:32:34.750Z,99.90
2023-01-09T18:35:02.525Z,99.90
2023-01-09T18:37:29.577Z,99.90
2023-01-09T18:39:56.360Z,99.90
2023-01-09T18:42:23.191Z,99.90
2023-01-09T18:44:50.448Z,99.90
2023-01-09T18:47:17.508Z,99.90
2023-01-09T18:49:44.396Z,99.90
2023-01-09T18:52:11.489Z,99.90
2023-01-09T18:54:38.728Z,99.90
2023-01-09T18:57:05.774Z,99.90
2023-01-09T18:59:32.563Z,99.90
2023-01-09T19:02:01.965Z,99.90
2023-01-09T19:04:29.308Z,99.90
2023-01-09T19:06:57.227Z,99.90
2023-01-09T19:09:24.307Z,99.90
2023-01-09T19:11:51.108Z,99.90
2023-01-09T19:14:18.019Z,99.90
2023-01-09T19:16:45.294Z,99.90
2023-01-09T19:19:12.259Z,99.90
2023-01-09T19:21:39.395Z,99.90
2023-01-09T19:24:06.580Z,99.90
2023-01-09T19:26:33.391Z,99.90
2023-01-09T19:29:00.935Z,99.90
2023-01-09T19:31:29.113Z,99.90
2023-01-09T19:33:56.754Z,99.90
2023-01-09T19:36:23.825Z,99.90
2023-01-09T19:38:55.629Z,99.90
2023-01-09T19:41:22.719Z,99.90
2023-01-09T19:43:51.000Z,99.90
2023-01-09T19:46:19.301Z,99.90
2023-01-09T19:48:46.656Z,99.90
2023-01-09T19:51:14.314Z,99.90
2023-01-09T19:53:41.233Z,99.90
2023-01-09T19:56:18.896Z,99.90
2023-01-09T19:58:50.076Z,99.90
2023-01-09T20:01:18.211Z,99.90
2023-01-09T20:03:46.731Z,99.90
2023-01-09T20:06:17.571Z,99.90
2023-01-09T20:08:48.172Z,99.90
2023-01-09T20:11:15.366Z,99.90
2023-01-09T20:13:42.598Z,99.90
2023-01-09T20:16:13.241Z,99.90
2023-01-09T20:18:40.871Z,99.90
2023-01-09T20:21:07.706Z,99.90
2023-01-09T20:23:36.338Z,99.90
2023-01-09T20:26:03.658Z,99.90
2023-01-09T20:28:30.767Z,99.90
2023-01-09T20:30:57.491Z,99.90
2023-01-09T20:33:24.433Z,99.90
2023-01-09T20:35:51.168Z,99.90
2023-01-09T20:38:17.826Z,99.90
2023-01-09T20:40:44.760Z,99.90
2023-01-09T20:43:14.765Z,99.90
2023-01-09T20:45:41.839Z,99.90
2023-01-09T20:48:10.928Z,99.90
2023-01-09T20:50:37.905Z,99.90
2023-01-09T20:53:06.549Z,99.90
2023-01-09T20:55:34.842Z,99.90
2023-01-09T20:58:01.756Z,99.90
2023-01-09T21:00:32.079Z,99.90
2023-01-09T21:02:59.708Z,99.90
2023-01-09T21:05:26.455Z,99.90
2023-01-09T21:07:53.231Z,99.90
2023-01-09T21:10:19.982Z,99.90
2023-01-09T21:12:46.683Z,99.90
2023-01-09T21:15:16.781Z,99.90
2023-01-09T21:17:43.883Z,99.90
2023-01-09T21:20:12.724Z,99.90
2023-01-09T21:22:39.610Z,99.90
2023-01-09T21:25:06.795Z,99.90
2023-01-09T21:27:36.681Z,99.90
2023-01-09T21:30:04.154Z,99.90
2023-01-09T21:32:32.861Z,99.90
2023-01-09T21:35:04.221Z,99.90
2023-01-09T21:37:32.609Z,99.90
2023-01-09T21:39:59.931Z,99.90
2023-01-09T21:42:45.547Z,99.90
2023-01-09T21:45:34.930Z,99.90
2023-01-09T21:48:10.792Z,99.90
2023-01-09T21:50:39.556Z,99.90
2023-01-09T21:53:06.400Z,99.90
2023-01-09T21:55:33.344Z,99.90
2023-01-09T21:58:03.629Z,99.90
2023-01-09T22:00:30.562Z,99.90
2023-01-09T22:02:57.941Z,99.90
2023-01-09T22:05:24.737Z,99.90
2023-01-09T22:07:51.596Z,99.90
2023-01-09T22:10:18.466Z,99.90
2023-01-09T22:13:05.443Z,99.90
2023-01-09T22:15:32.345Z,99.90
2023-01-09T22:17:59.042Z,99.90
2023-01-09T22:20:25.929Z,99.90
2023-01-09T22:22:52.629Z,99.90
2023-01-09T22:25:21.134Z,99.90
2023-01-09T22:27:49.403Z,99.90
2023-01-09T22:30:16.237Z,99.90
2023-01-09T22:32:43.233Z,99.90
2023-01-09T22:35:10.044Z,99.90
2023-01-09T22:37:36.779Z,99.90
2023-01-09T22:40:04.023Z,99.90
2023-01-09T22:42:30.904Z,99.90
2023-01-09T22:44:57.563Z,99.90
2023-01-09T22:47:24.388Z,99.90
2023-01-09T22:49:53.269Z,99.90
2023-01-09T22:52:20.696Z,99.90
2023-01-09T22:54:47.675Z,99.90
2023-01-09T22:57:14.485Z,99.90
2023-01-09T22:59:41.217Z,99.90
2023-01-09T23:02:08.081Z,99.90
2023-01-09T23:04:34.846Z,99.90
2023-01-09T23:07:01.571Z,99.90
2023-01-09T23:09:28.377Z,99.90
2023-01-09T23:12:03.968Z,99.90
2023-01-09T23:14:31.666Z,99.90
2023-01-09T23:16:58.472Z,99.90
2023-01-09T23:19:25.296Z,99.90
2023-01-09T23:21:52.091Z,99.90
2023-01-09T23:24:18.919Z,99.90
2023-01-09T23:26:46.475Z,99.90
2023-01-09T23:29:13.493Z,99.90
2023-01-09T23:31:40.194Z,99.90
2023-01-09T23:34:08.308Z,99.90
2023-01-09T23:36:35.530Z,99.90
2023-01-09T23:39:04.293Z,99.90
2023-01-09T23:41:51.545Z,99.90
2023-01-09T23:44:18.320Z,99.90
2023-01-09T23:46:44.961Z,99.90
2023-01-09T23:49:11.688Z,99.90
2023-01-09T23:51:38.345Z,99.90
2023-01-09T23:54:05.183Z,99.90
2023-01-09T23:56:33.882Z,99.90
2023-01-09T23:59:01.498Z,99.90
